< < Back
Terminal Aerodrome Forecast


Current Version              Previous Versions:   1  2  3  4  5  6  7  8  9  

Terminal Aerodrome Forecast

358
FTUS42 KMLB 310138 AAB
TAFDAB
TAF AMD
KDAB 310138Z 3102/3124 32010KT P6SM VCTS SCT040CB BKN110
      TEMPO 3102/3103 VRB15G28KT 3SM TSRA BKN040CB
     FM310600 21004KT P6SM SCT030 SCT250
     FM311400 27005KT P6SM SCT035
     FM312200 24005KT P6SM VCTS SCT035CB BKN250=

Latest METAR

006
SAUS80 KWBC 310200 RRA
MTRDAB
METAR KDAB 310153Z 20004KT 3SM +TSRA SCT047CB BKN095 OVC120 21/20 A2999
RMK AO2 SLP156 OCNL LTGIC OHD-ALQDS TS OHD-ALQDS MOV SE P0008
T02060200


USA.gov is the U.S. government's official web portal to all federal, state and local government web resources and services.